createdAt,value
2023-04-24T00:00:26.147Z,44.69
2023-04-24T00:02:58.250Z,44.64
2023-04-24T00:05:25.949Z,44.89
2023-04-24T00:07:53.730Z,44.46
2023-04-24T00:10:21.215Z,44.42
2023-04-24T00:12:48.728Z,44.31
2023-04-24T00:15:16.379Z,44.20
2023-04-24T00:17:43.777Z,44.17
2023-04-24T00:20:11.828Z,44.29
2023-04-24T00:22:39.467Z,45.58
2023-04-24T00:25:07.071Z,48.27
2023-04-24T00:27:36.093Z,49.20
2023-04-24T00:30:04.395Z,49.41
2023-04-24T00:32:31.904Z,48.63
2023-04-24T00:34:59.234Z,48.03
2023-04-24T00:37:26.984Z,49.85
2023-04-24T00:39:54.347Z,52.02
2023-04-24T00:42:21.698Z,50.94
2023-04-24T00:44:49.300Z,51.91
2023-04-24T00:47:16.665Z,50.85
2023-04-24T00:49:44.443Z,49.80
2023-04-24T00:52:13.458Z,50.54
2023-04-24T00:54:41.510Z,49.89
2023-04-24T00:57:09.029Z,49.47
2023-04-24T00:59:37.579Z,48.71
2023-04-24T01:02:04.936Z,48.75
2023-04-24T01:04:32.427Z,48.74
2023-04-24T01:07:00.091Z,48.05
2023-04-24T01:09:27.569Z,47.98
2023-04-24T01:11:54.972Z,47.60
2023-04-24T01:14:22.620Z,46.93
2023-04-24T01:16:50.663Z,46.51
2023-04-24T01:19:17.983Z,46.81
2023-04-24T01:21:46.142Z,46.66
2023-04-24T01:24:13.498Z,47.21
2023-04-24T01:26:40.838Z,47.19
2023-04-24T01:29:08.870Z,47.51
2023-04-24T01:31:36.346Z,48.35
2023-04-24T01:34:03.826Z,47.56
2023-04-24T01:36:32.423Z,47.53
2023-04-24T01:38:59.784Z,48.63
2023-04-24T01:41:27.174Z,49.53
2023-04-24T01:43:54.779Z,50.41
2023-04-24T01:46:22.155Z,50.23
2023-04-24T01:48:49.490Z,50.23
2023-04-24T01:51:17.127Z,50.22
2023-04-24T01:53:44.542Z,49.25
2023-04-24T01:56:11.875Z,50.06
2023-04-24T01:58:39.612Z,50.58
2023-04-24T02:01:07.598Z,50.96
2023-04-24T02:03:35.499Z,50.93
2023-04-24T02:06:02.916Z,50.23
2023-04-24T02:08:31.859Z,51.69
2023-04-24T02:10:59.511Z,51.12
2023-04-24T02:13:27.110Z,51.73
2023-04-24T02:15:54.478Z,51.15
2023-04-24T02:18:23.732Z,55.05
2023-04-24T02:20:51.780Z,54.82
2023-04-24T02:23:19.110Z,56.83
2023-04-24T02:25:46.769Z,53.90
2023-04-24T02:28:14.394Z,53.02
2023-04-24T02:30:41.731Z,54.13
2023-04-24T02:33:09.105Z,53.23
2023-04-24T02:35:37.127Z,53.55
2023-04-24T02:38:04.784Z,52.50
2023-04-24T02:40:32.143Z,53.69
2023-04-24T02:42:59.802Z,53.47
2023-04-24T02:45:27.162Z,53.99
2023-04-24T02:47:54.775Z,54.13
2023-04-24T02:50:22.423Z,54.12
2023-04-24T02:52:49.805Z,52.85
2023-04-24T02:55:17.240Z,53.96
2023-04-24T02:57:44.874Z,52.49
2023-04-24T03:00:12.849Z,52.52
2023-04-24T03:02:40.474Z,53.76
2023-04-24T03:05:08.550Z,53.36
2023-04-24T03:07:36.349Z,54.22
2023-04-24T03:10:04.114Z,54.80
2023-04-24T03:12:31.748Z,53.55
2023-04-24T03:14:59.111Z,53.55
2023-04-24T03:17:26.509Z,54.01
2023-04-24T03:19:54.298Z,53.18
2023-04-24T03:22:21.698Z,54.58
2023-04-24T03:24:49.066Z,55.29
2023-04-24T03:27:17.968Z,56.04
2023-04-24T03:29:46.388Z,54.57
2023-04-24T03:32:14.397Z,54.19
2023-04-24T03:34:42.330Z,53.87
2023-04-24T03:37:10.020Z,54.87
2023-04-24T03:39:39.260Z,55.05
2023-04-24T03:42:07.003Z,54.03
2023-04-24T03:44:36.556Z,53.41
2023-04-24T03:47:03.922Z,52.81
2023-04-24T03:49:32.921Z,53.42
2023-04-24T03:52:00.305Z,56.82
2023-04-24T03:54:28.055Z,54.81
2023-04-24T03:56:55.837Z,54.55
2023-04-24T03:59:23.560Z,54.72
2023-04-24T04:01:51.500Z,54.28
2023-04-24T04:04:19.302Z,54.83
2023-04-24T04:06:47.520Z,53.77
2023-04-24T04:09:15.250Z,53.19
2023-04-24T04:11:42.933Z,53.54
2023-04-24T04:14:10.345Z,54.18
2023-04-24T04:16:38.282Z,54.41
2023-04-24T04:19:06.531Z,54.45
2023-04-24T04:21:33.941Z,53.83
2023-04-24T04:24:02.073Z,55.57
2023-04-24T04:26:32.916Z,53.43
2023-04-24T04:29:04.595Z,53.90
2023-04-24T04:31:33.039Z,53.56
2023-04-24T04:34:02.561Z,55.12
2023-04-24T04:36:30.592Z,56.29
2023-04-24T04:39:00.373Z,55.22
2023-04-24T04:41:31.339Z,53.85
2023-04-24T04:44:02.056Z,53.57
2023-04-24T04:46:33.445Z,52.87
2023-04-24T04:49:02.355Z,53.25
2023-04-24T04:51:30.221Z,51.65
2023-04-24T04:53:57.582Z,53.08
2023-04-24T04:56:25.720Z,54.71
2023-04-24T04:58:53.124Z,53.16
2023-04-24T05:01:20.749Z,54.30
2023-04-24T05:03:48.879Z,54.14
2023-04-24T05:06:16.642Z,53.00
2023-04-24T05:08:44.386Z,52.85
2023-04-24T05:11:12.563Z,52.64
2023-04-24T05:13:41.350Z,53.04
2023-04-24T05:16:09.136Z,51.85
2023-04-24T05:18:37.031Z,53.44
2023-04-24T05:21:05.140Z,53.02
2023-04-24T05:23:32.649Z,52.49
2023-04-24T05:26:00.318Z,50.52
2023-04-24T05:28:31.189Z,51.66
2023-04-24T05:31:00.737Z,51.79
2023-04-24T05:33:28.693Z,52.23
2023-04-24T05:35:56.143Z,52.27
2023-04-24T05:38:23.740Z,52.14
2023-04-24T05:40:51.465Z,52.45
2023-04-24T05:43:18.838Z,52.63
2023-04-24T05:45:46.278Z,51.95
2023-04-24T05:48:13.992Z,52.47
2023-04-24T05:50:41.384Z,52.79
2023-04-24T05:53:08.914Z,52.30
2023-04-24T05:55:37.313Z,50.60
2023-04-24T05:58:04.773Z,50.97
2023-04-24T06:00:34.094Z,49.73
2023-04-24T06:03:04.734Z,49.98
2023-04-24T06:05:32.798Z,49.23
2023-04-24T06:08:00.329Z,49.61
2023-04-24T06:10:28.407Z,49.42
2023-04-24T06:13:01.113Z,50.86
2023-04-24T06:15:32.157Z,51.46
2023-04-24T06:17:59.856Z,53.41
2023-04-24T06:20:27.500Z,54.22
2023-04-24T06:22:55.147Z,54.25
2023-04-24T06:25:22.534Z,55.20
2023-04-24T06:27:51.664Z,55.37
2023-04-24T06:30:19.332Z,55.08
2023-04-24T06:32:46.736Z,56.06
2023-04-24T06:35:16.516Z,54.96
2023-04-24T06:37:44.225Z,53.96
2023-04-24T06:40:11.834Z,52.91
2023-04-24T06:42:39.239Z,53.32
2023-04-24T06:45:09.197Z,52.25
2023-04-24T06:47:36.734Z,53.43
2023-04-24T06:50:04.360Z,52.32
2023-04-24T06:52:33.924Z,53.17
2023-04-24T06:55:04.666Z,52.57
2023-04-24T06:57:33.380Z,51.73
2023-04-24T07:00:00.827Z,51.28
2023-04-24T07:02:28.288Z,51.67
2023-04-24T07:04:55.975Z,52.57
2023-04-24T07:07:25.573Z,51.25
2023-04-24T07:09:53.255Z,50.64
2023-04-24T07:12:22.661Z,50.38
2023-04-24T07:14:50.042Z,50.11
2023-04-24T07:17:17.382Z,49.44
2023-04-24T07:19:45.198Z,48.95
2023-04-24T07:22:17.722Z,47.79
2023-04-24T07:24:45.551Z,47.38
2023-04-24T07:27:13.171Z,48.44
2023-04-24T07:29:41.460Z,47.90
2023-04-24T07:32:10.140Z,46.04
2023-04-24T07:34:37.661Z,43.65
2023-04-24T07:37:04.986Z,42.51
2023-04-24T07:39:32.692Z,42.06
2023-04-24T07:42:00.399Z,42.92
2023-04-24T07:44:27.920Z,44.35
2023-04-24T07:46:55.721Z,44.10
2023-04-24T07:49:23.125Z,43.67
2023-04-24T07:51:50.714Z,39.66
2023-04-24T07:54:18.363Z,36.67
2023-04-24T07:56:45.837Z,33.65
2023-04-24T07:59:13.166Z,30.52
2023-04-24T08:01:41.390Z,30.29
2023-04-24T08:04:09.279Z,31.56
2023-04-24T08:06:36.795Z,33.02
2023-04-24T08:09:04.463Z,34.53
2023-04-24T08:11:32.931Z,35.28
2023-04-24T08:14:00.429Z,36.50
2023-04-24T08:16:27.837Z,37.26
2023-04-24T08:18:55.519Z,37.82
2023-04-24T08:21:22.919Z,37.77
2023-04-24T08:23:50.897Z,38.94
2023-04-24T08:26:18.923Z,39.44
2023-04-24T08:28:46.660Z,40.99
2023-04-24T08:31:15.186Z,41.13
2023-04-24T08:33:42.972Z,41.41
2023-04-24T08:36:10.679Z,40.30
2023-04-24T08:38:38.077Z,39.82
2023-04-24T08:41:06.088Z,38.84
2023-04-24T08:43:34.186Z,37.54
2023-04-24T08:46:01.579Z,36.76
2023-04-24T08:48:31.584Z,34.96
2023-04-24T08:50:59.907Z,32.86
2023-04-24T08:53:27.636Z,31.03
2023-04-24T08:55:56.428Z,29.26
2023-04-24T08:58:25.783Z,26.22
2023-04-24T09:00:55.072Z,25.68
2023-04-24T09:03:23.097Z,25.64
2023-04-24T09:05:52.188Z,25.68
2023-04-24T09:08:21.884Z,26.32
2023-04-24T09:10:55.708Z,28.01
2023-04-24T09:13:28.552Z,29.28
2023-04-24T09:15:58.423Z,28.98
2023-04-24T09:18:26.769Z,28.43
2023-04-24T09:21:14.450Z,26.93
2023-04-24T09:23:42.251Z,26.77
2023-04-24T09:26:13.578Z,26.16
2023-04-24T09:28:41.386Z,26.44
2023-04-24T09:31:19.254Z,25.70
2023-04-24T09:33:58.418Z,26.61
2023-04-24T09:36:34.262Z,27.07
2023-04-24T09:39:02.320Z,27.52
2023-04-24T09:41:30.154Z,28.02
2023-04-24T09:43:57.729Z,27.60
2023-04-24T09:46:32.771Z,28.30
2023-04-24T09:49:12.101Z,29.43
2023-04-24T09:51:39.539Z,28.76
2023-04-24T09:54:18.355Z,28.96
2023-04-24T09:56:46.558Z,29.61
2023-04-24T09:59:18.625Z,29.09
2023-04-24T10:01:46.183Z,29.93
2023-04-24T10:04:21.308Z,30.38
2023-04-24T10:06:52.130Z,30.79
2023-04-24T10:09:21.788Z,29.56
2023-04-24T10:11:50.754Z,30.51
2023-04-24T10:14:19.603Z,31.34
2023-04-24T10:16:50.689Z,33.28
2023-04-24T10:19:26.661Z,33.02
2023-04-24T10:21:55.738Z,34.13
2023-04-24T10:24:23.439Z,33.21
2023-04-24T10:26:50.989Z,33.24
2023-04-24T10:29:19.322Z,33.85
2023-04-24T10:31:47.786Z,33.75
2023-04-24T10:34:16.931Z,34.64
2023-04-24T10:36:47.200Z,33.80
2023-04-24T10:39:16.059Z,33.96
2023-04-24T10:41:43.520Z,34.37
2023-04-24T10:44:18.329Z,34.39
2023-04-24T10:46:49.885Z,35.06
2023-04-24T10:49:17.977Z,35.56
2023-04-24T10:51:54.136Z,35.51
2023-04-24T10:54:27.697Z,36.39
2023-04-24T10:57:35.184Z,36.13
2023-04-24T11:00:22.116Z,35.58
2023-04-24T11:02:51.558Z,35.57
2023-04-24T11:05:20.287Z,35.38
2023-04-24T11:08:13.370Z,34.34
2023-04-24T11:11:01.576Z,34.02
2023-04-24T11:13:58.271Z,32.60
2023-04-24T11:16:36.928Z,32.24
2023-04-24T11:19:16.389Z,32.25
2023-04-24T11:21:48.525Z,32.50
2023-04-24T11:24:40.617Z,33.42
2023-04-24T11:27:13.053Z,33.87
2023-04-24T11:29:50.960Z,33.39
2023-04-24T11:32:33.493Z,32.66
2023-04-24T11:35:02.321Z,32.22
2023-04-24T11:37:39.483Z,33.73
2023-04-24T11:40:08.536Z,33.16
2023-04-24T11:42:36.943Z,32.50
2023-04-24T11:45:12.097Z,32.12
2023-04-24T11:47:40.043Z,31.41
2023-04-24T11:50:09.137Z,30.64
2023-04-24T11:52:40.639Z,30.78
2023-04-24T11:55:20.520Z,31.08
2023-04-24T11:57:51.873Z,30.25
2023-04-24T12:00:23.903Z,30.26
2023-04-24T12:02:52.458Z,31.29
2023-04-24T12:05:27.661Z,30.72
2023-04-24T12:07:55.754Z,29.96
2023-04-24T12:10:27.688Z,30.31
2023-04-24T12:12:55.918Z,30.23
2023-04-24T12:15:23.583Z,30.83
2023-04-24T12:17:54.695Z,30.76
2023-04-24T12:20:29.648Z,31.39
2023-04-24T12:22:58.082Z,31.72
2023-04-24T12:25:27.157Z,31.36
2023-04-24T12:27:56.293Z,32.03
2023-04-24T12:30:28.785Z,31.92
2023-04-24T12:32:58.214Z,31.94
2023-04-24T12:35:26.985Z,32.25
2023-04-24T12:37:54.304Z,32.99
2023-04-24T12:40:22.304Z,32.88
2023-04-24T12:42:50.744Z,32.06
2023-04-24T12:45:21.255Z,32.38
2023-04-24T12:47:49.679Z,31.56
2023-04-24T12:50:17.417Z,31.74
2023-04-24T12:52:46.340Z,32.07
2023-04-24T12:55:14.177Z,33.34
2023-04-24T12:57:41.892Z,34.27
2023-04-24T13:00:09.771Z,35.24
2023-04-24T13:02:37.780Z,37.96
2023-04-24T13:05:06.092Z,38.79
2023-04-24T13:07:33.903Z,39.71
2023-04-24T13:10:01.255Z,40.70
2023-04-24T13:12:28.888Z,41.45
2023-04-24T13:14:56.808Z,40.80
2023-04-24T13:17:24.188Z,41.62
2023-04-24T13:19:52.437Z,41.51
2023-04-24T13:22:19.895Z,41.53
2023-04-24T13:24:49.612Z,41.34
2023-04-24T13:27:17.945Z,42.83
2023-04-24T13:29:45.648Z,44.29
2023-04-24T13:32:13.131Z,48.20
2023-04-24T13:34:40.764Z,52.49
2023-04-24T13:37:09.074Z,54.02
2023-04-24T13:39:36.674Z,56.32
2023-04-24T13:42:05.229Z,59.20
2023-04-24T13:44:32.737Z,66.36
2023-04-24T13:47:00.138Z,67.30
2023-04-24T13:49:27.846Z,67.43
2023-04-24T13:51:55.786Z,68.39
2023-04-24T13:54:24.486Z,68.97
2023-04-24T13:56:52.865Z,72.69
2023-04-24T13:59:21.614Z,71.91
2023-04-24T14:01:49.442Z,71.86
2023-04-24T14:04:17.473Z,73.12
2023-04-24T14:06:45.182Z,71.46
2023-04-24T14:09:13.531Z,72.44
2023-04-24T14:11:41.581Z,70.45
2023-04-24T14:14:09.186Z,70.84
2023-04-24T14:16:36.581Z,68.58
2023-04-24T14:19:04.331Z,68.93
2023-04-24T14:21:32.119Z,68.40
2023-04-24T14:23:59.526Z,69.12
2023-04-24T14:26:27.261Z,67.24
2023-04-24T14:29:01.103Z,68.57
2023-04-24T14:31:35.321Z,66.62
2023-04-24T14:34:02.709Z,67.09
2023-04-24T14:36:30.058Z,66.00
2023-04-24T14:38:57.696Z,65.43
2023-04-24T14:41:25.070Z,64.30
2023-04-24T14:43:52.597Z,65.24
2023-04-24T14:46:20.848Z,67.39
2023-04-24T14:48:48.389Z,64.84
2023-04-24T14:51:15.980Z,64.16
2023-04-24T14:53:43.865Z,66.50
2023-04-24T14:56:11.396Z,66.30
2023-04-24T14:58:38.834Z,66.50
2023-04-24T15:01:06.541Z,64.64
2023-04-24T15:03:34.280Z,65.65
2023-04-24T15:06:02.058Z,64.60
2023-04-24T15:08:29.725Z,65.09
2023-04-24T15:10:57.098Z,63.56
2023-04-24T15:13:24.437Z,64.09
2023-04-24T15:15:52.074Z,64.74
2023-04-24T15:18:19.538Z,62.99
2023-04-24T15:20:47.041Z,64.02
2023-04-24T15:23:14.681Z,62.90
2023-04-24T15:25:42.000Z,62.82
2023-04-24T15:28:09.394Z,64.51
2023-04-24T15:30:37.034Z,63.29
2023-04-24T15:33:04.633Z,64.20
2023-04-24T15:35:32.042Z,63.70
2023-04-24T15:37:59.635Z,63.14
2023-04-24T15:40:27.199Z,64.15
2023-04-24T15:42:54.563Z,64.26
2023-04-24T15:45:22.211Z,65.51
2023-04-24T15:47:49.637Z,64.72
2023-04-24T15:50:17.173Z,62.65
2023-04-24T15:52:44.908Z,63.56
2023-04-24T15:55:12.304Z,64.36
2023-04-24T15:57:40.107Z,62.12
2023-04-24T16:00:09.715Z,62.12
2023-04-24T16:02:39.118Z,63.00
2023-04-24T16:05:07.607Z,64.50
2023-04-24T16:07:34.993Z,63.67
2023-04-24T16:10:02.455Z,64.14
2023-04-24T16:12:30.325Z,67.34
2023-04-24T16:14:57.877Z,66.64
2023-04-24T16:17:25.343Z,64.97
2023-04-24T16:19:52.953Z,66.64
2023-04-24T16:22:20.333Z,65.75
2023-04-24T16:24:48.085Z,66.04
2023-04-24T16:27:15.810Z,67.29
2023-04-24T16:29:43.269Z,65.68
2023-04-24T16:32:11.111Z,65.09
2023-04-24T16:34:38.833Z,63.94
2023-04-24T16:37:06.720Z,64.55
2023-04-24T16:39:34.317Z,65.36
2023-04-24T16:42:01.938Z,66.08
2023-04-24T16:44:29.296Z,64.60
2023-04-24T16:46:56.932Z,64.83
2023-04-24T16:49:24.907Z,64.81
2023-04-24T16:51:52.265Z,67.15
2023-04-24T16:54:19.636Z,66.57
2023-04-24T16:56:47.250Z,65.76
2023-04-24T16:59:14.688Z,63.91
2023-04-24T17:01:42.063Z,65.07
2023-04-24T17:04:09.899Z,68.48
2023-04-24T17:06:37.313Z,68.17
2023-04-24T17:09:04.738Z,67.32
2023-04-24T17:11:32.380Z,66.18
2023-04-24T17:14:00.043Z,69.44
2023-04-24T17:16:27.673Z,66.26
2023-04-24T17:18:55.346Z,65.91
2023-04-24T17:21:22.721Z,65.82
2023-04-24T17:23:50.100Z,67.58
2023-04-24T17:26:17.745Z,68.12
2023-04-24T17:28:45.118Z,71.72
2023-04-24T17:31:12.490Z,70.92
2023-04-24T17:33:40.126Z,70.91
2023-04-24T17:36:08.136Z,71.14
2023-04-24T17:38:35.487Z,72.60
2023-04-24T17:41:03.121Z,72.71
2023-04-24T17:43:30.485Z,72.82
2023-04-24T17:45:59.476Z,71.59
2023-04-24T17:48:27.374Z,71.52
2023-04-24T17:50:54.842Z,73.35
2023-04-24T17:53:22.911Z,72.48
2023-04-24T17:55:50.593Z,73.37
2023-04-24T17:58:19.014Z,73.45
2023-04-24T18:00:46.925Z,72.42
2023-04-24T18:03:14.695Z,70.71
2023-04-24T18:05:42.298Z,73.40
2023-04-24T18:08:09.687Z,72.19
2023-04-24T18:10:37.330Z,72.15
2023-04-24T18:13:04.975Z,71.15
2023-04-24T18:15:32.728Z,69.94
2023-04-24T18:18:00.704Z,69.44
2023-04-24T18:20:28.055Z,69.57
2023-04-24T18:22:55.497Z,68.99
2023-04-24T18:25:27.018Z,70.42
2023-04-24T18:27:55.777Z,70.73
2023-04-24T18:30:24.080Z,69.31
2023-04-24T18:32:53.159Z,68.40
2023-04-24T18:35:21.144Z,69.18
2023-04-24T18:37:49.685Z,69.30
2023-04-24T18:40:17.299Z,67.92
2023-04-24T18:42:44.878Z,67.19
2023-04-24T18:45:14.644Z,68.00
2023-04-24T18:47:43.285Z,66.51
2023-04-24T18:50:11.052Z,66.61
2023-04-24T18:52:38.711Z,68.52
2023-04-24T18:55:07.088Z,65.58
2023-04-24T18:57:34.873Z,66.30
2023-04-24T19:00:02.757Z,66.34
2023-04-24T19:02:30.299Z,64.49
2023-04-24T19:04:57.739Z,65.81
2023-04-24T19:07:25.407Z,66.50
2023-04-24T19:09:52.756Z,64.57
2023-04-24T19:12:22.618Z,65.48
2023-04-24T19:14:51.856Z,66.62
2023-04-24T19:17:24.359Z,66.29
2023-04-24T19:19:52.155Z,64.01
2023-04-24T19:22:20.701Z,66.47
2023-04-24T19:24:48.111Z,67.71
2023-04-24T19:27:15.995Z,68.07
2023-04-24T19:29:43.396Z,65.44
2023-04-24T19:32:10.923Z,64.72
2023-04-24T19:34:40.441Z,66.76
2023-04-24T19:37:08.259Z,67.24
2023-04-24T19:39:35.715Z,64.80
2023-04-24T19:42:07.304Z,66.41
2023-04-24T19:44:35.076Z,67.09
2023-04-24T19:47:02.710Z,66.48
2023-04-24T19:49:30.439Z,64.87
2023-04-24T19:51:57.814Z,66.17
2023-04-24T19:54:25.965Z,66.05
2023-04-24T19:56:53.340Z,63.46
2023-04-24T19:59:21.056Z,65.34
2023-04-24T20:01:48.835Z,64.14
2023-04-24T20:04:16.724Z,65.30
2023-04-24T20:06:44.222Z,65.50
2023-04-24T20:09:11.674Z,66.28
2023-04-24T20:11:39.293Z,67.26
2023-04-24T20:14:06.640Z,66.37
2023-04-24T20:16:34.120Z,66.58
2023-04-24T20:19:01.760Z,68.75
2023-04-24T20:21:29.102Z,65.91
2023-04-24T20:23:56.718Z,66.50
2023-04-24T20:26:24.306Z,67.99
2023-04-24T20:28:51.927Z,67.88
2023-04-24T20:31:19.930Z,68.89
2023-04-24T20:33:47.607Z,67.25
2023-04-24T20:36:14.987Z,66.83
2023-04-24T20:38:42.388Z,66.96
2023-04-24T20:41:10.504Z,66.18
2023-04-24T20:43:37.872Z,65.74
2023-04-24T20:46:05.618Z,65.18
2023-04-24T20:48:33.249Z,63.84
2023-04-24T20:51:00.634Z,64.55
2023-04-24T20:53:27.963Z,64.95
2023-04-24T20:55:55.725Z,64.44
2023-04-24T20:58:23.926Z,63.55
2023-04-24T21:00:51.432Z,64.82
2023-04-24T21:03:19.322Z,64.31
2023-04-24T21:05:46.930Z,65.08
2023-04-24T21:08:14.462Z,66.42
2023-04-24T21:10:42.281Z,66.19
2023-04-24T21:13:09.709Z,65.02
2023-04-24T21:15:37.075Z,65.00
2023-04-24T21:18:04.884Z,63.33
2023-04-24T21:20:32.347Z,63.24
2023-04-24T21:22:59.680Z,63.52
2023-04-24T21:25:27.374Z,63.24
2023-04-24T21:27:55.247Z,63.60
2023-04-24T21:30:22.785Z,63.52
2023-04-24T21:32:52.080Z,65.17
2023-04-24T21:35:19.534Z,65.98
2023-04-24T21:37:47.117Z,66.94
2023-04-24T21:40:15.991Z,67.86
2023-04-24T21:42:43.398Z,65.55
2023-04-24T21:45:11.222Z,66.18
2023-04-24T21:47:38.880Z,67.61
2023-04-24T21:50:06.839Z,66.95
2023-04-24T21:52:34.209Z,68.27
2023-04-24T21:55:01.861Z,66.45
2023-04-24T21:57:29.336Z,66.60
2023-04-24T21:59:56.706Z,65.96
2023-04-24T22:02:24.428Z,65.80
2023-04-24T22:04:53.052Z,65.52
2023-04-24T22:07:20.590Z,68.55
2023-04-24T22:09:47.937Z,66.66
2023-04-24T22:12:15.711Z,67.19
2023-04-24T22:14:43.842Z,64.86
2023-04-24T22:17:11.222Z,66.80
2023-04-24T22:19:40.447Z,68.25
2023-04-24T22:22:08.020Z,68.78
2023-04-24T22:24:35.778Z,67.17
2023-04-24T22:27:03.584Z,70.28
2023-04-24T22:29:30.932Z,68.52
2023-04-24T22:31:58.798Z,69.85
2023-04-24T22:34:26.905Z,68.59
2023-04-24T22:36:54.267Z,69.86
2023-04-24T22:39:21.698Z,71.75
2023-04-24T22:41:49.298Z,71.83
2023-04-24T22:44:16.682Z,71.42
2023-04-24T22:46:45.266Z,70.83
2023-04-24T22:49:12.907Z,73.41
2023-04-24T22:51:41.700Z,74.57
2023-04-24T22:54:09.081Z,74.28
2023-04-24T22:56:37.733Z,73.27
2023-04-24T22:59:06.393Z,73.29
2023-04-24T23:01:33.881Z,73.29
2023-04-24T23:04:01.711Z,70.30
2023-04-24T23:06:29.409Z,71.22
2023-04-24T23:08:56.775Z,70.27
2023-04-24T23:11:24.377Z,70.16
2023-04-24T23:13:51.930Z,71.16
2023-04-24T23:16:19.376Z,70.68
2023-04-24T23:18:47.206Z,69.66
2023-04-24T23:21:14.527Z,69.08
2023-04-24T23:23:41.901Z,69.73
2023-04-24T23:26:09.489Z,68.44
2023-04-24T23:28:37.541Z,68.37
2023-04-24T23:31:04.923Z,69.12
2023-04-24T23:33:32.549Z,68.85
2023-04-24T23:35:59.914Z,70.22
2023-04-24T23:38:28.709Z,68.17
2023-04-24T23:41:01.842Z,69.45
2023-04-24T23:43:29.246Z,67.38
2023-04-24T23:45:56.701Z,69.03
2023-04-24T23:48:24.473Z,69.11
2023-04-24T23:50:51.799Z,68.19
2023-04-24T23:53:19.156Z,67.73
2023-04-24T23:55:46.763Z,68.31
2023-04-24T23:58:14.112Z,68.77
